• Join FlightAware (Why Join?)
  • Login
  • US Flag 
12:57AM EDT


 

Airport Tracker/Info


-or-


 

Live Flight TrackerFlight Track Log ✈ AUB1638 ✈ 23-Apr-2013 ✈ EDDM / MUC - EPPO / POZ

Flight Track Log - Related Links

Times and Time Zones

All times are in EDT time to prevent confusion due to time zone crossing. See the AUB1638 flight status page for this flight to view local times or setup timezone preferences in your user account.

Time Position Orientation Groundspeed Altitude Reporting Facility
EDT Latitude Longitude Course Direction KTS MPH feet Rate Location/Type
09:01AM 48.5950 12.0553 36° Northeast  Level Estimated
09:02AM 48.6552 12.1230 37° Northeast  Level Estimated
09:03AM 48.7154 12.1908 37° Northeast  Level Estimated
09:04AM 48.7755 12.2588 37° Northeast  Level Estimated
09:05AM 48.8356 12.3270 37° Northeast  Level Estimated
09:06AM 48.8956 12.3954 37° Northeast  Level Estimated
09:07AM 48.9556 12.4639 37° Northeast  Level Estimated
09:08AM 49.0156 12.5326 37° Northeast  Level Estimated
09:09AM 49.0755 12.6014 37° Northeast  Level Estimated
09:10AM 49.1354 12.6704 37° Northeast  Level Estimated
09:11AM 49.1952 12.7396 37° Northeast  Level Estimated
09:12AM 49.2550 12.8089 37° Northeast  Level Estimated
09:13AM 49.3148 12.8784 37° Northeast  Level Estimated
09:14AM 49.3745 12.9481 37° Northeast  Level Estimated
09:15AM 49.4342 13.0180 37° Northeast  Level Estimated
09:16AM 49.4938 13.0880 37° Northeast  Level Estimated
09:17AM 49.5534 13.1582 37° Northeast  Level Estimated
09:18AM 49.6130 13.2285 37° Northeast  Level Estimated
09:19AM 49.6725 13.2991 37° Northeast  Level Estimated
09:20AM 49.7319 13.3698 38° Northeast  Level Estimated
09:21AM 49.7913 13.4407 38° Northeast  Level Estimated
09:22AM 49.8507 13.5117 38° Northeast  Level Estimated
09:23AM 49.9100 13.5829 38° Northeast  Level Estimated
09:24AM 49.9693 13.6543 38° Northeast  Level Estimated
09:25AM 50.0286 13.7259 38° Northeast  Level Estimated
09:26AM 50.0878 13.7977 38° Northeast  Level Estimated
09:27AM 50.1469 13.8696 38° Northeast  Level Estimated
09:28AM 50.2060 13.9417 38° Northeast  Level Estimated
09:29AM 50.2651 14.0140 38° Northeast  Level Estimated
09:30AM 50.3241 14.0865 38° Northeast  Level Estimated
09:31AM 50.3831 14.1591 38° Northeast  Level Estimated
09:32AM 50.4420 14.2320 38° Northeast  Level Estimated
09:33AM 50.5009 14.3050 38° Northeast  Level Estimated
09:34AM 50.5598 14.3782 38° Northeast  Level Estimated
09:35AM 50.6185 14.4515 38° Northeast  Level Estimated
09:36AM 50.6773 14.5251 38° Northeast  Level Estimated
09:37AM 50.7360 14.5989 38° Northeast  Level Estimated
09:38AM 50.7947 14.6728 39° Northeast  Level Estimated
09:39AM 50.8533 14.7469 39° Northeast  Level Estimated
09:40AM 50.9118 14.8212 39° Northeast  Level Estimated
09:41AM 50.9703 14.8957 39° Northeast  Level Estimated
09:42AM 51.0288 14.9704 39° Northeast  Level Estimated
09:43AM 51.0872 15.0452 39° Northeast  Level Estimated
09:44AM 51.1456 15.1203 39° Northeast  Level Estimated
09:45AM 51.2039 15.1956 39° Northeast  Level Estimated
09:46AM 51.2622 15.2710 39° Northeast  Level Estimated
09:47AM 51.3204 15.3466 39° Northeast  Level Estimated
09:48AM 51.3786 15.4225 39° Northeast  Level Estimated
09:49AM 51.4367 15.4985 39° Northeast  Level Estimated
09:50AM 51.4948 15.5747 39° Northeast  Level Estimated
09:51AM 51.5528 15.6511 39° Northeast  Level Estimated
09:52AM 51.6108 15.7277 39° Northeast  Level Estimated
09:53AM 51.6687 15.8045 39° Northeast  Level Estimated
09:54AM 51.7266 15.8814 39° Northeast  Level Estimated
09:55AM 51.7844 15.9586 40° Northeast  Level Estimated
09:56AM 51.8422 16.0360 40° Northeast  Level Estimated
09:57AM 51.8999 16.1136 40° Northeast  Level Estimated
09:58AM 51.9576 16.1914 40° Northeast  Level Estimated
09:59AM 52.0152 16.2694 40° Northeast  Level Estimated
10:00AM 52.0728 16.3475 40° Northeast  Level Estimated
10:01AM 52.1303 16.4259 40° Northeast  Level Estimated
10:02AM 52.1878 16.5045 40° Northeast  Level Estimated
10:03AM 52.2452 16.5833 40° Northeast  Level Estimated
10:04AM 52.3026 16.6623 40° Northeast  Level Estimated
10:05AM 52.3599 16.7415 40° Northeast  Level Estimated
10:06AM 52.4171 16.8209 40° Northeast  Level Estimated
10:07AM 52.4210 16.8263 40° Northeast  Level Estimated
10:08AM 52.4210 16.8263 72° East  Level Estimated
10:09AM 52.4210 16.8263 72° East  Level Estimated
10:10AM 52.4210 16.8263 72° East  Level Estimated
10:11AM 52.4210 16.8263 72° East  Level Estimated
10:12AM 52.4210 16.8263 72° East  Level Estimated
10:13AM 52.4210 16.8263 72° East  Level Estimated
10:14AM 52.4210 16.8263 72° East  Level Estimated
10:15AM 52.4210 16.8263 72° East  Level Estimated
10:16AM 52.4210 16.8263 72° East  Level Estimated